Time;durP1;ratioP1;P1;durP2;ratioP2;P2;SDS_P1;SDS_P2;PMS_P1;PMS_P2;Temp;Humidity;BMP_temperature;BMP_pressure;BME280_temperature;BME280_humidity;BME280_pressure;Samples;Min_cycle;Max_cycle;Signal;HPM_P1;HPM_P2
2021/08/06 06:44:45;;;;;;;6.82;1.83;;;18.50;99.90;;;;;;12170213;27;20390;-53
2021/08/06 06:50:32;;;;;;;12.23;1.70;;;18.80;99.90;;;;;;12187636;27;20043;-56
2021/08/06 06:56:18;;;;;;;7.15;1.88;;;19.40;99.90;;;;;;12171036;27;20043;-56
2021/08/06 07:02:07;;;;;;;4.13;1.52;;;19.80;99.90;;;;;;12163243;27;20043;-57
2021/08/06 07:07:54;;;;;;;7.75;1.85;;;20.00;99.90;;;;;;12170218;27;20399;-57
2021/08/06 07:13:41;;;;;;;7.25;1.58;;;20.00;99.90;;;;;;12168066;27;20071;-56
2021/08/06 07:19:29;;;;;;;9.57;1.70;;;20.20;99.90;;;;;;12166999;27;20046;-56
2021/08/06 07:25:18;;;;;;;8.27;1.85;;;20.30;99.90;;;;;;12168138;27;20055;-58
2021/08/06 07:31:05;;;;;;;184.52;116.43;;;20.40;99.90;;;;;;12170902;27;20092;-56
2021/08/06 07:36:53;;;;;;;5.68;1.42;;;20.50;99.90;;;;;;12170736;27;20051;-57
2021/08/06 07:42:40;;;;;;;8.43;1.52;;;20.60;99.90;;;;;;12168638;27;20052;-58
2021/08/06 07:48:27;;;;;;;12.77;1.70;;;20.60;99.90;;;;;;12165328;27;20043;-57
2021/08/06 07:54:15;;;;;;;6.25;1.88;;;20.50;99.90;;;;;;12144396;27;20046;-56
2021/08/06 08:00:02;;;;;;;8.13;1.40;;;20.60;99.90;;;;;;12152796;27;20051;-55
2021/08/06 08:05:49;;;;;;;5.30;1.52;;;20.60;99.90;;;;;;12168424;28;20032;-57
2021/08/06 08:11:37;;;;;;;5.68;1.65;;;20.50;99.90;;;;;;12168518;28;20043;-55
2021/08/06 08:17:24;;;;;;;12.55;1.40;;;20.40;99.90;;;;;;12168152;28;20095;-57
2021/08/06 08:23:11;;;;;;;7.75;1.50;;;20.40;99.90;;;;;;12167365;28;20525;-57
2021/08/06 08:28:59;;;;;;;4.28;1.17;;;20.60;99.90;;;;;;12167441;28;20067;-56
2021/08/06 08:34:46;;;;;;;7.72;1.88;;;20.60;99.90;;;;;;12167772;28;20137;-67
2021/08/06 08:40:33;;;;;;;7.57;1.42;;;20.70;99.90;;;;;;12166550;28;20093;-56
2021/08/06 08:46:27;;;;;;;251.88;163.05;;;20.70;99.90;;;;;;12167091;28;20036;-50
2021/08/06 08:52:14;;;;;;;6.38;1.92;;;20.70;99.90;;;;;;12150139;27;20063;-54
2021/08/06 08:58:01;;;;;;;4.75;1.35;;;21.00;99.90;;;;;;12133253;27;20055;-55
2021/08/06 09:03:50;;;;;;;5.82;1.80;;;20.70;99.90;;;;;;12136760;27;20044;-56
2021/08/06 09:09:37;;;;;;;5.35;1.17;;;20.70;99.90;;;;;;12132718;27;20047;-58
2021/08/06 09:15:46;;;;;;;4.43;1.45;;;20.60;99.90;;;;;;12134388;27;20214;-54
2021/08/06 09:21:34;;;;;;;8.75;1.55;;;20.80;99.90;;;;;;12134941;27;20066;-56
2021/08/06 09:27:21;;;;;;;6.82;1.50;;;21.00;99.90;;;;;;12134652;27;20172;-57
2021/08/06 09:33:08;;;;;;;5.25;1.33;;;21.00;99.90;;;;;;12136532;27;20047;-56
2021/08/06 09:39:12;;;;;;;10.20;1.63;;;21.00;99.90;;;;;;12135851;28;20055;-57
2021/08/06 09:45:02;;;;;;;5.60;1.50;;;21.00;99.90;;;;;;12137238;27;20040;-56
2021/08/06 09:50:49;;;;;;;6.43;1.40;;;21.10;99.90;;;;;;12135156;27;20099;-57
2021/08/06 09:56:37;;;;;;;6.53;1.30;;;21.30;99.90;;;;;;12133401;28;20423;-57
2021/08/06 10:02:25;;;;;;;8.05;1.67;;;21.60;99.90;;;;;;12135216;27;20051;-54
2021/08/06 10:08:12;;;;;;;5.65;1.23;;;22.10;99.90;;;;;;12134392;28;20050;-55
2021/08/06 10:14:00;;;;;;;5.35;1.23;;;21.80;99.90;;;;;;12131827;28;20056;-57
2021/08/06 10:19:48;;;;;;;2.92;1.10;;;22.00;99.90;;;;;;12134660;27;20044;-54
2021/08/06 10:25:35;;;;;;;4.63;1.15;;;22.00;99.90;;;;;;12131663;28;20043;-56
2021/08/06 10:31:24;;;;;;;5.07;1.75;;;21.80;99.90;;;;;;12133667;28;20063;-57
2021/08/06 10:37:11;;;;;;;4.28;1.38;;;22.00;99.90;;;;;;12133598;28;20058;-54
2021/08/06 10:42:58;;;;;;;4.32;1.50;;;21.80;99.90;;;;;;12130512;28;20047;-54
2021/08/06 10:48:47;;;;;;;3.97;1.10;;;21.90;99.90;;;;;;12133109;28;20054;-52
2021/08/06 10:54:37;;;;;;;6.95;1.70;;;22.20;99.90;;;;;;12133698;28;20734;-53
2021/08/06 11:00:37;;;;;;;4.05;1.17;;;22.60;99.90;;;;;;12131051;22;20048;-76
2021/08/06 11:06:33;;;;;;;4.90;1.13;;;22.60;99.90;;;;;;12040003;28;20467;-77
2021/08/06 11:12:31;;;;;;;4.97;1.00;;;22.40;99.90;;;;;;12040816;28;20037;-77
2021/08/06 11:18:18;;;;;;;5.72;1.33;;;22.10;99.90;;;;;;12039297;28;20506;-76
2021/08/06 11:24:06;;;;;;;4.15;1.27;;;22.20;99.90;;;;;;12043169;28;20530;-77
2021/08/06 11:30:00;;;;;;;1.73;0.80;;;22.40;99.90;;;;;;12046420;28;20040;-76
2021/08/06 11:35:47;;;;;;;5.03;1.10;;;22.60;99.90;;;;;;12048540;28;20075;-76
2021/08/06 11:41:46;;;;;;;3.05;1.00;;;23.00;99.90;;;;;;12049874;28;20052;-76
2021/08/06 11:47:38;;;;;;;2.80;0.80;;;23.40;99.90;;;;;;12048836;28;20056;-76
2021/08/06 11:53:26;;;;;;;2.03;1.00;;;23.40;99.90;;;;;;12045146;28;20570;-76
2021/08/06 11:59:22;;;;;;;8.27;1.10;;;23.00;99.90;;;;;;12047617;28;20044;-76
2021/08/06 12:05:21;;;;;;;5.50;0.98;;;22.90;99.90;;;;;;12047363;28;20396;-77
2021/08/06 12:11:14;;;;;;;3.58;0.98;;;23.30;99.90;;;;;;12045496;28;20047;-78
2021/08/06 12:17:02;;;;;;;3.70;1.23;;;23.30;99.90;;;;;;12046932;28;20079;-77
2021/08/06 12:22:50;;;;;;;5.15;1.00;;;22.80;99.90;;;;;;12050071;28;20059;-78
2021/08/06 12:28:38;;;;;;;3.65;1.02;;;22.40;99.90;;;;;;12049396;28;20056;-78
2021/08/06 12:34:30;;;;;;;4.40;0.80;;;22.70;99.90;;;;;;12049263;28;20044;-76
2021/08/06 12:40:18;;;;;;;2.50;0.85;;;23.10;99.90;;;;;;12049802;28;20048;-77
2021/08/06 12:46:16;;;;;;;3.88;1.00;;;23.50;99.90;;;;;;12052358;28;20059;-78
2021/08/06 12:52:08;;;;;;;1.88;1.02;;;23.00;99.80;;;;;;12050232;28;20048;-78
2021/08/06 12:57:56;;;;;;;3.95;1.20;;;22.70;99.90;;;;;;12049354;28;20093;-78
2021/08/06 13:03:45;;;;;;;2.85;0.98;;;23.20;99.90;;;;;;12050761;28;20067;-76
2021/08/06 13:09:41;;;;;;;2.90;0.73;;;23.40;98.90;;;;;;12050743;28;20045;-79
2021/08/06 13:15:28;;;;;;;3.30;0.73;;;23.60;98.50;;;;;;12049726;28;20056;-80
2021/08/06 13:21:15;;;;;;;4.05;0.93;;;23.30;98.40;;;;;;12047587;28;21303;-79
2021/08/06 13:27:04;;;;;;;4.07;0.82;;;23.60;98.00;;;;;;12047102;28;20056;-78
2021/08/06 13:32:52;;;;;;;1.73;0.80;;;24.00;97.00;;;;;;12046879;28;20511;-78
2021/08/06 13:38:38;;;;;;;4.93;1.25;;;24.30;97.20;;;;;;12047647;28;20553;-77
2021/08/06 13:44:27;;;;;;;2.38;0.98;;;24.70;95.20;;;;;;12047574;28;20045;-78
2021/08/06 13:50:13;;;;;;;6.38;1.40;;;24.80;93.90;;;;;;12047449;28;20067;-79
2021/08/06 13:56:00;;;;;;;1.98;0.60;;;25.10;93.20;;;;;;12046072;28;20052;-78
2021/08/06 14:01:49;;;;;;;3.47;0.80;;;25.50;92.10;;;;;;12043425;28;20052;-78
2021/08/06 14:07:36;;;;;;;1.77;0.68;;;25.40;90.90;;;;;;12046264;28;20055;-78
2021/08/06 14:13:23;;;;;;;2.90;0.80;;;25.20;90.70;;;;;;12049403;28;20419;-76
2021/08/06 14:19:12;;;;;;;3.88;0.80;;;25.30;89.20;;;;;;12051082;28;20052;-77
2021/08/06 14:24:59;;;;;;;1.73;0.73;;;25.50;87.90;;;;;;12044647;28;20044;-77
2021/08/06 14:30:46;;;;;;;1.85;0.80;;;26.00;86.60;;;;;;12047370;28;20051;-76
2021/08/06 14:36:35;;;;;;;2.83;0.73;;;25.70;84.60;;;;;;12041797;28;20052;-77
2021/08/06 14:42:22;;;;;;;1.20;0.82;;;25.80;86.40;;;;;;12042632;28;20052;-76
2021/08/06 14:48:08;;;;;;;3.45;0.93;;;25.80;83.90;;;;;;12043674;28;20438;-76
2021/08/06 14:53:57;;;;;;;2.97;0.70;;;25.70;84.40;;;;;;12042344;28;20048;-77
2021/08/06 14:59:44;;;;;;;4.53;1.00;;;26.00;84.70;;;;;;12041729;28;20422;-77
2021/08/06 15:05:31;;;;;;;1.33;0.50;;;26.10;85.00;;;;;;12049206;28;20571;-77
2021/08/06 15:11:19;;;;;;;3.80;1.00;;;26.70;84.40;;;;;;12049491;28;20048;-77
2021/08/06 15:17:06;;;;;;;2.60;0.90;;;26.50;82.20;;;;;;12051452;28;20542;-77
2021/08/06 15:22:54;;;;;;;4.45;1.50;;;26.40;82.50;;;;;;12030774;28;20086;-76
2021/08/06 15:28:42;;;;;;;1.83;0.98;;;26.50;83.00;;;;;;12033688;28;20052;-77
2021/08/06 15:34:29;;;;;;;2.63;0.90;;;26.30;81.00;;;;;;12052591;28;20056;-76
2021/08/06 15:40:16;;;;;;;3.35;1.48;;;26.60;80.80;;;;;;12047310;28;21088;-76
2021/08/06 15:46:07;;;;;;;3.90;1.20;;;26.60;79.80;;;;;;12051169;28;20431;-76
2021/08/06 15:51:54;;;;;;;3.22;1.00;;;26.70;77.60;;;;;;12050012;28;20049;-76
2021/08/06 15:57:41;;;;;;;2.67;1.00;;;26.80;75.00;;;;;;12049060;28;20055;-76
2021/08/06 16:03:30;;;;;;;2.08;0.90;;;26.70;75.90;;;;;;12048762;28;20063;-76
2021/08/06 16:09:17;;;;;;;1.90;0.90;;;26.60;74.20;;;;;;12050193;28;20690;-77
2021/08/06 16:15:04;;;;;;;3.67;0.80;;;28.50;71.50;;;;;;12049146;28;20051;-79
2021/08/06 16:20:53;;;;;;;3.60;0.80;;;29.10;65.20;;;;;;12052997;28;20052;-79
2021/08/06 16:26:40;;;;;;;2.38;1.02;;;28.70;66.80;;;;;;12048846;28;20048;-76
2021/08/06 16:32:26;;;;;;;5.07;1.00;;;29.30;66.00;;;;;;12048240;28;20052;-77
2021/08/06 16:38:15;;;;;;;2.25;0.80;;;30.10;63.40;;;;;;12047893;28;20076;-77
2021/08/06 16:44:02;;;;;;;2.95;1.17;;;30.00;63.40;;;;;;12047858;28;20059;-77
2021/08/06 16:49:49;;;;;;;2.50;0.90;;;30.80;59.40;;;;;;12046493;28;20123;-79
2021/08/06 16:55:37;;;;;;;3.55;1.10;;;30.50;58.70;;;;;;12047851;28;20072;-79
2021/08/06 17:01:24;;;;;;;1.58;0.80;;;28.90;61.70;;;;;;12048379;28;20065;-79
2021/08/06 17:07:14;;;;;;;4.95;1.13;;;28.50;63.20;;;;;;12048599;28;20063;-78
2021/08/06 17:13:02;;;;;;;4.80;1.17;;;27.60;64.70;;;;;;12049258;28;20153;-77
2021/08/06 17:18:52;;;;;;;2.20;0.90;;;27.80;64.60;;;;;;12047086;28;20045;-77
2021/08/06 17:24:39;;;;;;;2.55;0.77;;;28.70;63.80;;;;;;12044236;28;20445;-76
2021/08/06 17:30:28;;;;;;;2.50;0.70;;;30.10;59.90;;;;;;12045142;28;20055;-76
2021/08/06 17:36:15;;;;;;;1.63;0.80;;;30.00;59.30;;;;;;12045427;28;20045;-77
2021/08/06 17:42:02;;;;;;;2.80;0.90;;;29.10;59.80;;;;;;12045321;28;20068;-79
2021/08/06 17:47:51;;;;;;;3.50;0.80;;;27.90;62.80;;;;;;12045563;28;20063;-79
2021/08/06 17:53:38;;;;;;;2.15;0.70;;;27.60;65.10;;;;;;12047247;28;20052;-79
2021/08/06 17:59:25;;;;;;;4.28;0.90;;;27.70;65.30;;;;;;12044633;28;20090;-78
2021/08/06 18:05:15;;;;;;;4.38;0.80;;;27.70;64.90;;;;;;12042718;28;20048;-78
2021/08/06 18:11:05;;;;;;;4.03;1.40;;;27.20;67.90;;;;;;12045849;28;21193;-78
2021/08/06 18:16:52;;;;;;;4.05;1.10;;;26.50;70.80;;;;;;12045789;28;20143;-79
2021/08/06 18:22:40;;;;;;;2.30;0.70;;;26.20;72.70;;;;;;12043221;28;20051;-79
2021/08/06 18:28:28;;;;;;;1.75;0.73;;;26.20;72.90;;;;;;12043780;28;20060;-78
2021/08/06 18:34:16;;;;;;;8.23;1.23;;;25.90;74.40;;;;;;12043718;28;20049;-78
2021/08/06 18:40:06;;;;;;;4.50;0.93;;;26.50;72.10;;;;;;12044660;28;20079;-78
2021/08/06 18:45:53;;;;;;;3.38;1.17;;;26.40;71.90;;;;;;12045091;28;20051;-77
2021/08/06 18:51:39;;;;;;;4.47;1.00;;;25.90;74.10;;;;;;12044081;28;20056;-78
2021/08/06 18:57:28;;;;;;;2.90;1.30;;;25.50;74.70;;;;;;12044601;28;20044;-78
2021/08/06 19:03:15;;;;;;;1.45;0.90;;;25.10;76.00;;;;;;12042629;28;20056;-78
2021/08/06 19:09:02;;;;;;;4.50;1.00;;;25.00;76.80;;;;;;12044944;28;20067;-78
2021/08/06 19:14:50;;;;;;;6.38;1.05;;;24.80;77.40;;;;;;12045000;28;20060;-78
2021/08/06 19:20:38;;;;;;;7.15;1.40;;;24.50;78.80;;;;;;12046404;28;20049;-79
2021/08/06 19:26:25;;;;;;;3.50;1.17;;;24.30;78.90;;;;;;12047009;28;20036;-79
2021/08/06 19:32:13;;;;;;;5.95;1.05;;;24.10;79.70;;;;;;12046381;28;20064;-78
2021/08/06 19:38:00;;;;;;;3.03;1.00;;;24.00;80.40;;;;;;12049734;28;20053;-79
2021/08/06 19:43:47;;;;;;;8.55;1.42;;;23.90;80.50;;;;;;12047289;28;20059;-79
2021/08/06 19:49:36;;;;;;;5.60;1.20;;;23.80;81.00;;;;;;12061325;28;20059;-79
2021/08/06 19:55:22;;;;;;;3.28;1.20;;;23.60;81.80;;;;;;12053993;28;20045;-78
2021/08/06 20:01:09;;;;;;;5.43;1.20;;;23.50;82.00;;;;;;12053583;28;20048;-78
2021/08/06 20:06:58;;;;;;;5.95;1.23;;;23.50;82.70;;;;;;12052772;28;20423;-78
2021/08/06 20:12:44;;;;;;;3.10;1.00;;;23.50;82.70;;;;;;12051100;28;20052;-78
2021/08/06 20:18:31;;;;;;;4.55;1.08;;;23.40;83.10;;;;;;12052396;28;20057;-79
2021/08/06 20:24:20;;;;;;;6.03;1.30;;;23.30;83.70;;;;;;12050641;28;20075;-77
2021/08/06 20:30:07;;;;;;;7.20;1.30;;;23.30;84.00;;;;;;12048299;28;20098;-76
2021/08/06 20:35:54;;;;;;;4.50;1.45;;;23.30;84.30;;;;;;12047990;28;20063;-76
2021/08/06 20:41:44;;;;;;;3.33;0.82;;;23.20;85.00;;;;;;12047902;28;20056;-77
2021/08/06 20:47:31;;;;;;;2.88;1.10;;;23.20;85.70;;;;;;12047000;28;20048;-77
2021/08/06 20:53:18;;;;;;;4.03;1.30;;;23.20;85.10;;;;;;12047818;28;20048;-76
2021/08/06 20:59:06;;;;;;;6.05;1.33;;;23.20;86.00;;;;;;12046602;28;20048;-75
2021/08/06 21:04:53;;;;;;;7.93;1.50;;;23.10;86.50;;;;;;12044521;28;20052;-76
2021/08/06 21:10:41;;;;;;;7.18;1.85;;;22.90;86.20;;;;;;12029872;28;20072;-76
2021/08/06 21:16:29;;;;;;;8.25;1.40;;;22.80;87.60;;;;;;12045602;28;20053;-75
2021/08/06 21:22:16;;;;;;;5.28;1.60;;;22.80;88.00;;;;;;12047772;28;20048;-75
2021/08/06 21:28:04;;;;;;;7.20;1.42;;;22.80;89.00;;;;;;12048751;28;20158;-78
2021/08/06 21:33:53;;;;;;;8.90;1.50;;;22.80;89.20;;;;;;12047010;28;20045;-75
2021/08/06 21:39:39;;;;;;;9.05;1.45;;;22.80;88.50;;;;;;12043789;28;20050;-75
2021/08/06 21:45:26;;;;;;;2.15;1.10;;;22.70;88.20;;;;;;12042523;28;20048;-75
2021/08/06 21:51:15;;;;;;;2.42;0.90;;;22.60;88.80;;;;;;12043587;28;20048;-75
2021/08/06 21:57:01;;;;;;;5.97;1.80;;;22.50;88.30;;;;;;12043039;28;20634;-76
2021/08/06 22:02:48;;;;;;;8.95;1.52;;;22.50;89.60;;;;;;12044931;28;21082;-76
2021/08/06 22:08:36;;;;;;;7.25;1.50;;;22.50;90.10;;;;;;12041549;28;20079;-77
2021/08/06 22:14:23;;;;;;;4.40;1.00;;;22.50;90.00;;;;;;12041978;28;20060;-77
2021/08/06 22:20:11;;;;;;;5.20;1.20;;;22.50;89.60;;;;;;12044951;28;20067;-77
2021/08/06 22:26:00;;;;;;;10.00;1.50;;;22.50;89.60;;;;;;12041749;28;20500;-76
2021/08/06 22:31:46;;;;;;;7.93;1.15;;;22.40;89.70;;;;;;12041772;28;20049;-76
2021/08/06 22:37:33;;;;;;;6.30;1.60;;;22.30;89.70;;;;;;12042199;28;20098;-76
2021/08/06 22:43:22;;;;;;;2.95;1.40;;;22.20;90.50;;;;;;12043050;28;20060;-75
2021/08/06 22:49:09;;;;;;;5.82;1.55;;;22.20;90.90;;;;;;12042726;28;20628;-77
2021/08/06 22:54:56;;;;;;;4.28;1.33;;;22.20;91.00;;;;;;12039170;28;20048;-77
2021/08/06 23:00:44;;;;;;;9.20;1.77;;;22.10;91.00;;;;;;12038602;28;20135;-75
2021/08/06 23:06:31;;;;;;;7.00;1.45;;;22.00;91.30;;;;;;12044220;28;20052;-75
2021/08/06 23:12:18;;;;;;;6.45;1.45;;;21.80;91.60;;;;;;12043633;28;20049;-78
2021/08/06 23:18:06;;;;;;;7.60;1.20;;;21.60;91.90;;;;;;12044401;28;20052;-78
2021/08/06 23:23:53;;;;;;;5.35;1.10;;;21.60;92.20;;;;;;12049614;28;20037;-78
2021/08/06 23:29:40;;;;;;;5.85;1.75;;;21.50;92.10;;;;;;12054614;28;20052;-76
